Time;durP1;ratioP1;P1;durP2;ratioP2;P2;SDS_P1;SDS_P2;PMS_P1;PMS_P2;Temp;Humidity;BMP_temperature;BMP_pressure;BME280_temperature;BME280_humidity;BME280_pressure;Samples;Min_cycle;Max_cycle;Signal;HPM_P1;HPM_P2
2023/07/20 00:00:53;;;;;;;6.43;2.80;;;;;;;23.01;55.66;93660.41;5062934;28;20091;-81
2023/07/20 00:03:24;;;;;;;10.93;3.03;;;;;;;23.07;55.11;93668.94;5063504;28;20024;-82
2023/07/20 00:05:51;;;;;;;8.07;2.33;;;;;;;23.06;55.26;93668.19;5063508;28;20029;-82
2023/07/20 00:08:18;;;;;;;16.50;2.60;;;;;;;23.03;55.34;93664.28;5063422;28;20024;-82
2023/07/20 00:10:43;;;;;;;12.32;3.13;;;;;;;23.05;55.49;93654.97;5063390;28;20222;-82
2023/07/20 00:13:10;;;;;;;14.70;2.90;;;;;;;23.07;54.59;93658.06;5063249;28;20017;-82
2023/07/20 00:15:37;;;;;;;9.27;2.65;;;;;;;23.10;53.46;93647.19;5061952;28;20100;-81
2023/07/20 00:18:03;;;;;;;10.32;2.83;;;;;;;23.11;54.05;93656.09;5063146;28;20326;-81
2023/07/20 00:20:29;;;;;;;8.95;2.75;;;;;;;23.10;53.63;93658.06;5062935;28;20319;-81
2023/07/20 00:22:55;;;;;;;12.40;2.90;;;;;;;23.11;53.92;93656.09;5061915;28;20028;-81
2023/07/20 00:25:20;;;;;;;8.57;2.90;;;;;;;23.16;54.42;93661.91;5063222;28;20028;-80
2023/07/20 00:27:46;;;;;;;8.18;3.33;;;;;;;23.12;54.67;93657.66;5061887;28;20042;-81
2023/07/20 00:30:12;;;;;;;9.10;2.78;;;;;;;23.16;54.51;93664.63;5062862;28;20067;-81
2023/07/20 00:32:37;;;;;;;7.10;2.88;;;;;;;23.14;52.85;93663.47;5062875;28;20035;-81
2023/07/20 00:35:03;;;;;;;7.72;3.00;;;;;;;23.09;53.19;93678.25;5062816;28;20017;-81
2023/07/20 00:37:29;;;;;;;9.70;2.60;;;;;;;23.05;53.04;93674.00;5062843;28;20025;-81
2023/07/20 00:39:54;;;;;;;10.57;2.63;;;;;;;23.07;53.23;93672.44;5062705;28;20017;-81
2023/07/20 00:42:20;;;;;;;9.35;2.97;;;;;;;23.08;53.46;93659.59;5062963;28;20056;-81
2023/07/20 00:44:45;;;;;;;8.73;2.45;;;;;;;23.06;51.72;93656.50;5061577;28;20124;-81
2023/07/20 00:47:11;;;;;;;6.50;3.00;;;;;;;23.01;51.58;93657.69;5062814;28;20017;-81
2023/07/20 00:49:37;;;;;;;8.40;2.20;;;;;;;22.98;52.48;93656.53;5062959;28;20092;-82
2023/07/20 00:52:06;;;;;;;8.23;3.03;;;;;;;23.00;52.77;93651.47;5062610;28;20055;-82
2023/07/20 00:54:32;;;;;;;13.50;2.60;;;;;;;23.02;53.96;93649.16;5061873;28;20041;-82
2023/07/20 00:56:58;;;;;;;9.95;2.47;;;;;;;22.98;54.16;93644.91;5061618;28;20066;-82
2023/07/20 00:59:25;;;;;;;10.05;2.78;;;;;;;22.95;54.82;93638.28;5061511;28;20041;-82
2023/07/20 01:01:51;;;;;;;6.80;2.45;;;;;;;22.91;55.77;93650.38;5062010;28;20315;-81
2023/07/20 01:04:17;;;;;;;9.73;2.22;;;;;;;22.88;54.90;93651.16;5062394;28;20101;-82
2023/07/20 01:06:53;;;;;;;12.52;2.55;;;;;;;22.69;54.16;93639.59;5062591;28;20346;-81
2023/07/20 01:09:39;;;;;;;8.85;2.70;;;;;;;22.52;56.35;93635.78;5062582;28;20025;-81
2023/07/20 01:12:30;;;;;;;10.93;3.10;;;;;;;22.44;57.10;93645.13;5063277;28;20349;-81
2023/07/20 01:14:56;;;;;;;8.20;2.58;;;;;;;22.41;55.85;93651.38;5066804;28;20256;-81
2023/07/20 01:17:21;;;;;;;7.03;2.80;;;;;;;22.43;55.74;93649.03;5065314;28;20063;-81
2023/07/20 01:19:47;;;;;;;10.52;2.90;;;;;;;22.46;54.89;93642.81;5066127;28;20020;-81
2023/07/20 01:22:32;;;;;;;12.77;3.30;;;;;;;22.41;54.51;93640.50;5066372;28;20112;-81
2023/07/20 01:25:12;;;;;;;10.35;2.88;;;;;;;22.45;55.74;93646.69;5065221;28;20326;-82
2023/07/20 01:27:59;;;;;;;7.00;2.67;;;;;;;22.38;56.63;93652.16;5066094;28;20032;-81
2023/07/20 01:30:50;;;;;;;14.65;3.05;;;;;;;22.24;57.38;93647.53;5065297;28;20025;-81
2023/07/20 01:33:17;;;;;;;9.40;2.97;;;;;;;22.21;57.69;93645.56;5066304;28;20021;-81
2023/07/20 01:35:44;;;;;;;7.40;2.33;;;;;;;22.18;58.23;93651.78;5066153;28;20028;-82
2023/07/20 01:38:12;;;;;;;8.38;2.30;;;;;;;22.12;58.14;93642.50;5098474;28;20052;-82
2023/07/20 01:40:39;;;;;;;10.73;2.42;;;;;;;22.09;58.10;93649.47;5064869;28;20075;-81
2023/07/20 01:43:04;;;;;;;13.50;2.88;;;;;;;21.93;58.76;93652.59;5066141;28;20061;-81
2023/07/20 01:45:29;;;;;;;11.23;2.90;;;;;;;21.76;59.14;93651.47;5065914;28;20025;-81
2023/07/20 01:47:55;;;;;;;9.82;3.03;;;;;;;21.72;59.45;93649.94;5066184;28;20039;-81
2023/07/20 01:50:20;;;;;;;11.80;2.83;;;;;;;21.71;60.99;93642.94;5066217;28;20035;-82
2023/07/20 01:52:46;;;;;;;14.25;2.63;;;;;;;21.61;60.72;93641.78;5065756;28;20258;-82
2023/07/20 01:55:11;;;;;;;8.45;2.80;;;;;;;21.52;61.14;93641.41;5064546;28;20053;-82
2023/07/20 01:57:37;;;;;;;12.02;2.72;;;;;;;21.44;61.75;93649.53;5065720;28;20028;-82
2023/07/20 02:00:03;;;;;;;11.77;3.20;;;;;;;21.43;62.50;93642.59;5065650;28;20203;-82
2023/07/20 02:02:29;;;;;;;11.32;3.53;;;;;;;21.39;62.73;93641.78;5065711;28;20033;-82
2023/07/20 02:04:54;;;;;;;9.63;3.35;;;;;;;21.32;63.47;93639.03;5065590;28;20278;-82
2023/07/20 02:07:19;;;;;;;7.15;2.75;;;;;;;21.22;63.69;93629.75;5065811;28;20250;-81
2023/07/20 02:09:45;;;;;;;13.00;3.00;;;;;;;21.13;63.71;93631.31;5065605;28;20338;-82
2023/07/20 02:12:10;;;;;;;14.88;3.25;;;;;;;21.11;63.85;93639.03;5065550;28;20346;-82
2023/07/20 02:14:36;;;;;;;11.95;2.80;;;;;;;21.03;63.56;93630.88;5065475;28;20345;-82
2023/07/20 02:17:01;;;;;;;17.73;3.30;;;;;;;20.97;63.57;93642.50;5065263;28;20303;-81
2023/07/20 02:19:27;;;;;;;9.73;2.85;;;;;;;20.92;64.38;93635.50;5064344;28;20024;-81
2023/07/20 02:21:52;;;;;;;11.75;2.40;;;;;;;20.90;64.54;93642.47;5065583;28;20200;-81
2023/07/20 02:24:18;;;;;;;7.38;2.97;;;;;;;20.87;64.86;93638.59;5063414;28;20033;-81
2023/07/20 02:26:44;;;;;;;10.10;2.92;;;;;;;20.83;65.25;93640.53;5065202;28;20066;-81
2023/07/20 02:29:11;;;;;;;8.10;3.40;;;;;;;20.81;65.45;93632.00;5065130;28;20056;-81
2023/07/20 02:31:39;;;;;;;8.75;3.35;;;;;;;20.79;65.75;93634.31;5065222;28;20260;-82
2023/07/20 02:34:08;;;;;;;9.05;3.03;;;;;;;20.72;65.53;93637.00;5065128;28;20307;-81
2023/07/20 02:36:34;;;;;;;10.32;3.53;;;;;;;20.73;65.50;93635.84;5064989;28;20025;-82
2023/07/20 02:39:02;;;;;;;13.52;3.03;;;;;;;20.77;65.87;93639.34;5063657;28;20346;-81
2023/07/20 02:41:27;;;;;;;14.20;3.25;;;;;;;20.71;65.92;93630.81;5065088;28;20054;-82
2023/07/20 02:43:53;;;;;;;8.50;2.67;;;;;;;20.69;66.11;93624.25;5063804;28;20059;-82
2023/07/20 02:46:18;;;;;;;15.15;3.25;;;;;;;20.57;66.04;93620.69;5065378;28;20024;-81
2023/07/20 02:48:44;;;;;;;24.60;3.75;;;;;;;20.53;66.89;93613.72;5063697;28;20033;-81
2023/07/20 02:51:09;;;;;;;15.40;3.50;;;;;;;20.50;67.06;93611.78;5064608;28;20029;-82
2023/07/20 02:53:34;;;;;;;13.52;3.85;;;;;;;20.43;67.44;93601.69;5064713;28;20029;-82
2023/07/20 02:56:00;;;;;;;13.13;3.42;;;;;;;20.48;67.24;93603.28;5063563;28;20091;-81
2023/07/20 02:58:25;;;;;;;20.25;4.22;;;;;;;20.49;67.23;93605.56;5064626;28;20044;-81
2023/07/20 03:00:51;;;;;;;18.33;4.38;;;;;;;20.48;67.37;93628.41;5064776;28;20025;-81
2023/07/20 03:03:16;;;;;;;14.05;3.17;;;;;;;20.41;67.71;93607.50;5064384;28;20271;-82
2023/07/20 03:05:42;;;;;;;18.48;3.63;;;;;;;20.39;67.94;93611.72;5064516;28;20380;-82
2023/07/20 03:08:08;;;;;;;16.45;3.55;;;;;;;20.33;66.99;93618.66;5064566;28;20024;-82
2023/07/20 03:10:39;;;;;;;11.40;2.85;;;;;;;20.31;66.62;93612.84;5064514;28;20050;-82
2023/07/20 03:13:04;;;;;;;7.65;2.80;;;;;;;20.29;66.18;93612.47;5064277;28;20021;-81
2023/07/20 03:15:31;;;;;;;16.23;3.90;;;;;;;20.27;66.52;93623.66;5064203;28;20028;-81
2023/07/20 03:17:58;;;;;;;12.43;2.83;;;;;;;20.17;66.82;93616.28;5064508;28;20053;-84
2023/07/20 03:20:23;;;;;;;12.73;3.10;;;;;;;20.19;67.29;93622.88;5063239;28;20417;-82
2023/07/20 03:22:48;;;;;;;11.45;3.58;;;;;;;20.20;67.28;93629.81;5064357;28;20025;-82
2023/07/20 03:25:14;;;;;;;9.00;3.00;;;;;;;20.16;67.65;93636.38;5064144;28;20020;-82
2023/07/20 03:27:40;;;;;;;11.93;2.85;;;;;;;20.21;67.52;93628.69;5064025;28;20024;-81
2023/07/20 03:30:07;;;;;;;10.85;3.47;;;;;;;20.23;68.14;93633.69;5063971;28;20020;-80
2023/07/20 03:32:32;;;;;;;24.67;5.78;;;;;;;20.11;67.94;93634.00;5063844;28;20024;-81
2023/07/20 03:34:58;;;;;;;22.23;3.95;;;;;;;20.09;68.41;93637.13;5063261;28;20017;-81
2023/07/20 03:37:23;;;;;;;15.32;3.00;;;;;;;20.12;68.19;93639.06;5063231;28;20017;-82
2023/07/20 03:39:49;;;;;;;29.60;4.47;;;;;;;20.11;68.15;93634.81;5063967;28;20017;-79
2023/07/20 03:42:14;;;;;;;30.63;4.28;;;;;;;20.07;68.82;93628.59;5063673;28;20751;-81
2023/07/20 03:44:40;;;;;;;16.73;3.97;;;;;;;19.89;70.24;93635.84;5063484;28;20048;-81
2023/07/20 03:47:06;;;;;;;25.65;4.75;;;;;;;19.82;70.52;93628.44;5063979;28;20024;-81
2023/07/20 03:49:32;;;;;;;19.95;3.72;;;;;;;19.97;70.34;93632.81;5062877;28;20032;-82
2023/07/20 03:51:57;;;;;;;28.95;5.70;;;;;;;20.00;70.39;93636.66;5062573;28;20369;-85
2023/07/20 03:54:23;;;;;;;25.17;4.47;;;;;;;20.08;70.64;93646.38;5062088;28;20029;-73
2023/07/20 03:56:49;;;;;;;24.50;4.43;;;;;;;20.15;70.49;93637.50;5062479;28;20028;-73
2023/07/20 03:59:14;;;;;;;37.15;5.85;;;;;;;20.22;70.62;93641.03;5062979;28;20021;-73
2023/07/20 04:01:40;;;;;;;38.30;5.13;;;;;;;20.31;70.94;93648.03;5063007;28;20098;-73
2023/07/20 04:04:07;;;;;;;23.40;3.85;;;;;;;20.37;70.32;93654.63;5061184;28;20047;-81
2023/07/20 04:06:32;;;;;;;21.70;4.60;;;;;;;20.32;70.58;93638.78;5061332;28;20036;-78
2023/07/20 04:08:58;;;;;;;20.00;6.72;;;;;;;20.43;69.85;93642.28;5061410;28;20311;-75
2023/07/20 04:11:23;;;;;;;24.92;4.45;;;;;;;20.50;70.06;93628.78;5060590;28;20076;-89
2023/07/20 04:13:49;;;;;;;13.32;4.43;;;;;;;20.63;68.52;93616.47;5061959;28;20056;-90
2023/07/20 04:16:14;;;;;;;26.95;3.90;;;;;;;20.74;67.53;93621.94;5063530;28;20085;-90
2023/07/20 04:18:40;;;;;;;27.70;3.88;;;;;;;20.81;67.80;93615.75;5064494;28;20044;-89
2023/07/20 04:21:09;;;;;;;17.33;3.85;;;;;;;20.95;67.48;93617.72;5072193;28;20020;-90
2023/07/20 04:23:35;;;;;;;15.70;3.67;;;;;;;21.04;67.33;93616.19;5073268;28;20029;-89
2023/07/20 04:26:01;;;;;;;16.08;3.25;;;;;;;21.14;67.26;93622.00;5064893;28;20099;-89
2023/07/20 04:28:27;;;;;;;13.80;3.13;;;;;;;21.17;66.00;93622.00;5063624;28;20024;-89
2023/07/20 04:30:53;;;;;;;13.70;3.35;;;;;;;21.35;64.74;93618.50;5063382;28;20017;-90
2023/07/20 04:33:19;;;;;;;13.30;3.70;;;;;;;21.44;64.32;93619.72;5063503;28;20031;-90
2023/07/20 04:35:44;;;;;;;18.77;3.78;;;;;;;21.53;64.27;93621.25;5063532;28;20282;-90
2023/07/20 04:38:10;;;;;;;18.50;3.72;;;;;;;21.63;63.96;93615.06;5063667;28;20095;-90
2023/07/20 04:40:35;;;;;;;17.67;3.92;;;;;;;21.73;63.72;93616.22;5063487;28;20088;-90
2023/07/20 04:43:01;;;;;;;12.90;3.58;;;;;;;21.78;63.12;93608.47;5063469;28;20029;-90
2023/07/20 04:45:26;;;;;;;13.98;3.28;;;;;;;21.86;63.31;93603.00;5064721;28;20041;-90
2023/07/20 04:47:52;;;;;;;12.85;3.50;;;;;;;21.92;63.09;93610.38;5064512;28;20025;-89
2023/07/20 04:50:17;;;;;;;30.02;4.57;;;;;;;22.00;63.34;93611.09;5064079;28;20100;-91
2023/07/20 04:52:46;;;;;;;17.60;3.58;;;;;;;22.14;63.10;93619.22;5064120;28;20029;-90
2023/07/20 04:55:11;;;;;;;21.50;3.63;;;;;;;22.17;62.95;93610.28;5062712;28;20049;-92
2023/07/20 04:57:37;;;;;;;15.10;4.70;;;;;;;22.30;62.60;93615.31;5062712;28;20098;-90
2023/07/20 05:00:04;;;;;;;19.10;4.05;;;;;;;22.38;62.35;93614.13;5062951;28;20023;-91
2023/07/20 05:02:30;;;;;;;13.10;3.42;;;;;;;22.39;61.54;93599.41;5064660;28;20021;-89
2023/07/20 05:04:55;;;;;;;15.50;3.78;;;;;;;22.48;61.21;93623.41;5063537;28;20048;-88
2023/07/20 05:07:21;;;;;;;14.43;3.55;;;;;;;22.52;60.80;93608.63;5064980;28;20066;-91
2023/07/20 05:09:46;;;;;;;22.63;4.03;;;;;;;22.58;60.76;93612.50;5064138;28;20016;-90
2023/07/20 05:12:12;;;;;;;16.92;4.00;;;;;;;22.66;60.90;93601.59;5063730;28;20033;-89
2023/07/20 05:14:38;;;;;;;16.85;3.22;;;;;;;22.73;59.93;93618.63;5063846;28;20013;-90
2023/07/20 05:17:03;;;;;;;16.65;3.88;;;;;;;22.81;59.94;93624.78;5064230;28;20368;-89
2023/07/20 05:19:29;;;;;;;10.02;2.63;;;;;;;22.88;59.46;93621.25;5063625;28;20021;-90
2023/07/20 05:21:54;;;;;;;23.58;4.13;;;;;;;22.95;59.72;93624.72;5064141;28;20200;-89
2023/07/20 05:24:20;;;;;;;7.15;4.20;;;;;;;23.02;59.60;93624.72;5064315;28;20035;-89
2023/07/20 05:26:45;;;;;;;17.67;3.38;;;;;;;23.12;59.02;93625.03;5063932;28;20100;-89
2023/07/20 05:29:11;;;;;;;19.35;3.45;;;;;;;23.20;58.02;93624.59;5064027;28;20027;-91
2023/07/20 05:31:36;;;;;;;9.32;3.13;;;;;;;23.26;57.69;93635.81;5062859;28;20441;-90
2023/07/20 05:34:02;;;;;;;12.07;3.63;;;;;;;23.30;56.89;93633.06;5063616;28;20009;-90
2023/07/20 05:36:27;;;;;;;10.85;3.58;;;;;;;23.27;57.00;93629.22;5063522;28;20028;-90
2023/07/20 05:38:53;;;;;;;16.00;3.78;;;;;;;23.29;56.66;93637.72;5062542;28;20028;-90
2023/07/20 05:41:18;;;;;;;11.77;2.85;;;;;;;23.29;56.67;93631.53;5063914;28;20219;-90
2023/07/20 05:43:44;;;;;;;9.20;3.13;;;;;;;23.36;56.69;93640.38;5063867;28;20116;-90
2023/07/20 05:46:10;;;;;;;11.63;3.08;;;;;;;23.34;55.68;93639.25;5063524;28;20032;-89
2023/07/20 05:48:35;;;;;;;15.55;3.97;;;;;;;23.40;55.37;93643.84;5063302;28;20033;-91
2023/07/20 05:51:01;;;;;;;9.25;3.30;;;;;;;23.45;56.14;93648.13;5063557;28;20040;-90
2023/07/20 05:53:26;;;;;;;8.20;3.35;;;;;;;23.43;55.65;93645.78;5063181;28;20123;-90
2023/07/20 05:55:55;;;;;;;13.75;3.85;;;;;;;23.55;55.09;93652.69;5063650;28;20215;-91
2023/07/20 05:58:21;;;;;;;29.63;4.28;;;;;;;23.53;54.13;93659.69;5063821;28;20021;-90
2023/07/20 06:00:50;;;;;;;14.05;3.42;;;;;;;23.54;53.81;93644.94;5066952;28;20025;-90
2023/07/20 06:03:21;;;;;;;12.40;4.43;;;;;;;23.55;53.52;93633.66;5067116;28;20025;-91
2023/07/20 06:05:46;;;;;;;13.85;3.17;;;;;;;23.53;53.82;93641.44;5067144;28;20028;-91
2023/07/20 06:08:12;;;;;;;14.95;3.15;;;;;;;23.53;54.80;93638.72;5067246;28;20024;-91
2023/07/20 06:10:37;;;;;;;17.63;3.45;;;;;;;23.44;54.73;93647.31;5066925;28;20052;-91
2023/07/20 06:13:03;;;;;;;10.40;3.83;;;;;;;23.52;56.57;93641.84;5065969;28;20092;-90
2023/07/20 06:15:32;;;;;;;16.15;3.80;;;;;;;23.61;55.46;93636.69;5067081;28;20031;-90
2023/07/20 06:17:57;;;;;;;26.20;4.35;;;;;;;23.63;55.50;93642.53;5067069;28;20067;-90
2023/07/20 06:20:24;;;;;;;14.80;3.40;;;;;;;23.68;54.57;93628.50;5067022;28;20032;-91
2023/07/20 06:22:49;;;;;;;12.02;3.38;;;;;;;23.68;54.33;93625.00;5067078;28;20052;-90
2023/07/20 06:25:15;;;;;;;15.80;4.28;;;;;;;23.70;54.57;93617.22;5065777;28;20223;-88
2023/07/20 06:27:40;;;;;;;14.32;4.05;;;;;;;23.77;53.93;93612.50;5067073;28;20220;-90
2023/07/20 06:30:06;;;;;;;12.98;3.38;;;;;;;23.90;53.78;93603.84;5067154;28;20240;-91
2023/07/20 06:32:32;;;;;;;11.45;3.72;;;;;;;24.02;54.23;93611.50;5066820;28;20200;-90
2023/07/20 06:34:57;;;;;;;16.48;3.67;;;;;;;24.05;52.69;93620.78;5066553;28;20024;-90
2023/07/20 06:37:24;;;;;;;13.02;3.22;;;;;;;24.06;53.44;93617.66;5065337;28;20032;-90
2023/07/20 06:39:49;;;;;;;12.13;3.95;;;;;;;24.08;53.46;93623.47;5065218;28;20250;-90
2023/07/20 06:42:14;;;;;;;10.25;2.88;;;;;;;24.16;53.00;93619.50;5066320;28;20047;-89
2023/07/20 06:44:40;;;;;;;14.63;4.15;;;;;;;24.16;53.77;93608.63;5065211;28;20033;-90
2023/07/20 06:47:05;;;;;;;16.70;3.72;;;;;;;24.25;54.06;93619.03;5065214;28;20344;-90
2023/07/20 06:49:31;;;;;;;19.73;4.20;;;;;;;24.35;53.15;93609.19;5066153;28;20222;-90
2023/07/20 06:51:56;;;;;;;20.60;3.70;;;;;;;24.47;52.93;93614.09;5066258;28;20032;-88
2023/07/20 06:54:22;;;;;;;11.52;3.30;;;;;;;24.58;51.42;93611.25;5065856;28;20045;-89
2023/07/20 06:56:48;;;;;;;20.85;4.50;;;;;;;24.72;51.02;93616.53;5066313;28;20211;-89
2023/07/20 06:59:13;;;;;;;13.07;2.88;;;;;;;24.85;51.42;93630.38;5064989;28;20235;-90
2023/07/20 07:01:39;;;;;;;17.35;3.97;;;;;;;25.00;50.48;93633.69;5064881;28;20102;-89
2023/07/20 07:04:05;;;;;;;11.75;3.92;;;;;;;25.12;50.83;93646.78;5064717;28;20028;-90
2023/07/20 07:06:31;;;;;;;10.18;2.70;;;;;;;25.25;50.10;93646.25;5066325;28;20370;-89
2023/07/20 07:08:56;;;;;;;8.65;3.50;;;;;;;25.25;49.47;93655.19;5065882;28;20024;-88
2023/07/20 07:11:23;;;;;;;18.90;3.40;;;;;;;25.29;49.71;93657.88;5064678;28;20104;-89
2023/07/20 07:13:50;;;;;;;10.90;3.30;;;;;;;25.28;49.30;93664.50;5066007;28;20017;-88
2023/07/20 07:16:18;;;;;;;21.02;3.53;;;;;;;25.28;48.79;93665.28;5065845;28;20021;-88
2023/07/20 07:18:46;;;;;;;13.63;3.47;;;;;;;25.25;48.31;93673.50;5065749;28;20013;-88
2023/07/20 07:21:12;;;;;;;10.18;2.90;;;;;;;25.33;48.12;93683.91;5065406;28;20016;-89
2023/07/20 07:23:40;;;;;;;15.05;3.35;;;;;;;25.39;48.18;93687.72;5065227;28;20037;-89
2023/07/20 07:26:06;;;;;;;10.07;3.05;;;;;;;25.39;47.67;93686.94;5064159;28;20025;-89
2023/07/20 07:28:34;;;;;;;14.32;3.60;;;;;;;25.36;49.55;93694.00;5065696;28;20032;-89
2023/07/20 07:31:00;;;;;;;17.48;4.35;;;;;;;25.42;49.99;93686.91;5065593;28;20029;-89
2023/07/20 07:33:26;;;;;;;16.88;4.43;;;;;;;25.45;50.62;93684.53;5065252;28;20020;-89
2023/07/20 07:35:54;;;;;;;14.52;3.47;;;;;;;25.49;51.01;93686.00;5065730;28;20025;-89
2023/07/20 07:38:20;;;;;;;14.98;4.13;;;;;;;25.55;50.37;93678.13;5065507;28;20021;-89
2023/07/20 07:40:46;;;;;;;14.95;4.43;;;;;;;25.58;50.71;93672.59;5065534;28;20033;-89
2023/07/20 07:43:13;;;;;;;17.65;4.95;;;;;;;25.59;50.51;93673.41;5065312;28;20264;-89
2023/07/20 07:45:39;;;;;;;14.68;4.25;;;;;;;25.63;50.95;93677.59;5065208;28;20028;-89
2023/07/20 07:48:06;;;;;;;23.38;4.13;;;;;;;25.67;51.81;93674.84;5065232;28;20096;-89
2023/07/20 07:50:32;;;;;;;13.70;4.00;;;;;;;25.72;50.96;93654.47;5064353;28;20259;-90
2023/07/20 07:52:57;;;;;;;15.65;3.97;;;;;;;25.87;51.22;93649.53;5065334;28;20028;-89
2023/07/20 07:55:24;;;;;;;15.80;4.50;;;;;;;25.95;50.97;93637.34;5065118;28;20347;-90
2023/07/20 07:57:49;;;;;;;13.55;4.78;;;;;;;25.86;50.03;93637.84;5065627;28;20027;-90
2023/07/20 08:00:18;;;;;;;24.70;4.60;;;;;;;25.89;50.81;93647.16;5063942;28;20315;-88
2023/07/20 08:02:47;;;;;;;20.58;4.25;;;;;;;25.94;51.86;93633.84;5064268;28;20191;-87
2023/07/20 08:05:13;;;;;;;12.23;4.32;;;;;;;25.99;51.38;93643.50;5064765;28;20239;-84
2023/07/20 08:07:39;;;;;;;14.23;3.90;;;;;;;25.97;52.28;93660.34;5062930;28;20027;-85
2023/07/20 08:10:05;;;;;;;29.40;6.25;;;;;;;26.09;52.43;93669.84;5064142;28;20231;-86
2023/07/20 08:12:31;;;;;;;11.63;3.80;;;;;;;26.18;52.36;93681.03;5063900;28;20020;-83
2023/07/20 08:14:57;;;;;;;10.60;3.85;;;;;;;26.15;52.14;93705.66;5064193;28;20059;-89
2023/07/20 08:17:22;;;;;;;10.15;3.22;;;;;;;25.96;52.55;93712.63;5063576;28;20020;-86
2023/07/20 08:19:48;;;;;;;14.07;4.22;;;;;;;25.69;53.16;93707.94;5062275;28;20024;-80
2023/07/20 08:22:13;;;;;;;21.88;4.00;;;;;;;25.64;54.40;93681.09;5062830;28;20020;-81
2023/07/20 08:24:40;;;;;;;11.77;3.47;;;;;;;25.53;54.66;93718.72;5063959;28;20369;-81
2023/07/20 08:27:06;;;;;;;15.55;3.53;;;;;;;25.34;52.64;93739.22;5064834;28;20017;-87
2023/07/20 08:29:31;;;;;;;17.70;3.17;;;;;;;25.16;50.99;93715.66;5063843;28;20075;-84
2023/07/20 08:31:56;;;;;;;12.15;2.75;;;;;;;25.08;52.65;93708.00;5064464;28;20024;-84
2023/07/20 08:34:22;;;;;;;10.93;2.58;;;;;;;25.00;51.40;93718.97;5064851;28;20074;-85
2023/07/20 08:36:47;;;;;;;9.15;2.33;;;;;;;24.78;51.33;93709.53;5064296;28;20028;-86
2023/07/20 08:39:12;;;;;;;8.05;1.98;;;;;;;24.86;50.29;93716.44;5063543;28;20052;-84
2023/07/20 08:41:39;;;;;;;11.48;2.65;;;;;;;24.93;50.73;93705.44;5063504;28;20025;-86
2023/07/20 08:44:05;;;;;;;10.70;2.95;;;;;;;25.07;50.64;93700.97;5064644;28;20281;-86
2023/07/20 08:46:31;;;;;;;13.25;2.50;;;;;;;25.06;50.93;93702.94;5063692;28;20037;-84
2023/07/20 08:48:57;;;;;;;10.95;3.08;;;;;;;25.05;51.02;93698.66;5063915;28;20092;-89
2023/07/20 08:51:24;;;;;;;11.23;3.22;;;;;;;25.12;49.87;93701.31;5064252;28;20024;-85
2023/07/20 08:53:51;;;;;;;11.35;3.15;;;;;;;25.15;49.61;93677.91;5063488;28;20099;-85
2023/07/20 08:56:19;;;;;;;17.15;3.40;;;;;;;25.12;47.68;93703.28;5063388;28;20029;-87
2023/07/20 08:58:45;;;;;;;10.02;2.80;;;;;;;25.10;47.43;93681.84;5063872;28;20262;-84
2023/07/20 09:01:12;;;;;;;8.80;2.78;;;;;;;25.20;48.69;93674.72;5064166;28;20031;-88
2023/07/20 09:03:39;;;;;;;11.20;3.30;;;;;;;25.26;47.36;93683.22;5063617;28;20100;-83
2023/07/20 09:06:05;;;;;;;13.82;2.40;;;;;;;25.22;48.58;93677.84;5063056;28;20016;-83
2023/07/20 09:08:31;;;;;;;8.00;2.22;;;;;;;25.20;48.12;93678.22;5063239;28;20017;-89
2023/07/20 09:10:56;;;;;;;16.52;3.00;;;;;;;25.22;48.52;93672.38;5062911;28;20025;-82
2023/07/20 09:13:22;;;;;;;10.20;2.10;;;;;;;25.31;47.41;93685.50;5062955;28;20049;-84
2023/07/20 09:15:53;;;;;;;8.05;2.42;;;;;;;25.28;48.19;93683.59;5063227;28;20021;-85
2023/07/20 09:18:29;;;;;;;16.30;2.92;;;;;;;25.40;47.76;93688.47;5064203;28;20043;-86
2023/07/20 09:21:06;;;;;;;10.30;2.78;;;;;;;25.47;46.20;93666.56;5063857;28;20031;-83
2023/07/20 09:23:36;;;;;;;6.38;2.10;;;;;;;25.48;46.14;93661.88;5062690;28;20037;-85
2023/07/20 09:26:12;;;;;;;12.43;2.50;;;;;;;25.52;45.30;93651.66;5063275;28;20025;-85
2023/07/20 09:28:52;;;;;;;14.38;2.90;;;;;;;25.61;44.90;93665.56;5063537;28;20056;-83
2023/07/20 09:31:20;;;;;;;16.38;2.60;;;;;;;25.66;46.72;93665.09;5064389;28;20082;-90
2023/07/20 09:33:46;;;;;;;7.53;2.15;;;;;;;25.61;45.07;93657.38;5065955;28;20025;-87
2023/07/20 09:36:12;;;;;;;9.35;2.65;;;;;;;25.61;45.09;93660.88;5067416;28;20043;-84
2023/07/20 09:38:41;;;;;;;9.77;2.17;;;;;;;25.67;45.38;93658.47;5067031;28;20054;-85
2023/07/20 09:41:06;;;;;;;12.13;2.28;;;;;;;25.77;44.71;93693.00;5067156;28;20028;-83
2023/07/20 09:43:34;;;;;;;12.32;3.25;;;;;;;25.92;43.95;93663.53;5066307;28;20021;-80
2023/07/20 09:45:59;;;;;;;7.35;2.05;;;;;;;26.06;43.13;93650.81;5067595;28;20027;-88
2023/07/20 09:48:28;;;;;;;10.00;2.78;;;;;;;26.18;42.63;93645.53;5066798;28;20040;-82
2023/07/20 09:50:55;;;;;;;13.13;2.55;;;;;;;26.31;42.67;93647.63;5066237;28;20091;-80
2023/07/20 09:53:21;;;;;;;11.10;2.75;;;;;;;26.52;43.04;93647.25;5066477;28;20087;-85
2023/07/20 09:55:48;;;;;;;9.30;2.40;;;;;;;26.80;43.76;93632.22;5067106;28;20059;-88
2023/07/20 09:58:14;;;;;;;8.80;2.63;;;;;;;26.94;41.65;93625.69;5066517;28;20239;-82
2023/07/20 10:00:46;;;;;;;9.30;2.00;;;;;;;26.94;41.12;93605.78;5065946;28;20104;-82
2023/07/20 10:03:16;;;;;;;6.28;1.90;;;;;;;26.94;40.20;93608.53;5066174;28;20323;-82
2023/07/20 10:05:46;;;;;;;12.00;3.47;;;;;;;26.93;40.73;93618.69;5066010;28;20052;-81
2023/07/20 10:08:12;;;;;;;9.55;2.33;;;;;;;27.02;42.09;93615.38;5065855;28;20020;-82
2023/07/20 10:10:41;;;;;;;17.08;2.50;;;;;;;27.12;41.51;93617.09;5066255;28;20192;-82
2023/07/20 10:13:13;;;;;;;12.50;2.80;;;;;;;27.13;40.41;93626.06;5067057;28;20017;-82
2023/07/20 10:15:45;;;;;;;;;;;;;;;27.17;39.56;93615.81;5066400;28;20043;-82
2023/07/20 10:18:23;;;;;;;8.52;2.70;;;;;;;27.09;39.43;93625.38;5065065;28;19928;-82
2023/07/20 10:20:51;;;;;;;10.10;2.40;;;;;;;27.10;39.09;93624.19;5067091;28;20021;-83
2023/07/20 10:23:17;;;;;;;8.60;2.60;;;;;;;27.21;40.17;93633.72;5066251;28;20021;-82
2023/07/20 10:25:43;;;;;;;8.10;2.67;;;;;;;27.37;40.27;93632.97;5065988;28;20020;-82
2023/07/20 10:28:10;;;;;;;9.57;2.38;;;;;;;27.42;40.27;93637.94;5066221;28;20039;-82
2023/07/20 10:30:37;;;;;;;5.28;1.83;;;;;;;27.48;39.81;93623.75;5066250;28;20166;-82
2023/07/20 10:33:04;;;;;;;7.72;2.28;;;;;;;27.46;40.08;93631.59;5066988;28;20017;-83
2023/07/20 10:35:30;;;;;;;8.80;1.70;;;;;;;27.47;39.92;93622.22;5066350;28;20020;-82
2023/07/20 10:38:04;;;;;;;12.40;1.98;;;;;;;27.39;39.77;93605.94;5066384;28;20021;-83
2023/07/20 10:40:37;;;;;;;14.88;2.28;;;;;;;27.52;40.42;93617.00;5066385;28;20020;-83
2023/07/20 10:43:04;;;;;;;6.90;2.33;;;;;;;27.57;40.87;93621.19;5065992;28;20048;-83
2023/07/20 10:45:35;;;;;;;7.65;1.83;;;;;;;27.56;41.67;93614.94;5066377;28;20028;-82
2023/07/20 10:48:04;;;;;;;12.60;2.35;;;;;;;27.56;41.46;93567.63;5064876;28;20048;-81
2023/07/20 10:50:30;;;;;;;11.63;2.42;;;;;;;27.75;40.90;93524.94;5065578;28;20027;-82
2023/07/20 10:53:11;;;;;;;7.65;2.13;;;;;;;28.00;40.44;93548.94;5066527;28;20016;-83
2023/07/20 10:55:36;;;;;;;7.32;2.65;;;;;;;28.17;40.37;93569.63;5065836;28;20037;-82
2023/07/20 10:58:14;;;;;;;14.55;3.22;;;;;;;28.36;40.53;93575.38;5067491;28;20033;-89
2023/07/20 11:00:59;;;;;;;13.63;3.33;;;;;;;28.60;40.69;93562.19;5068224;28;20032;-88
2023/07/20 11:03:33;;;;;;;16.10;3.13;;;;;;;28.82;40.08;93534.88;5067650;28;20032;-86
2023/07/20 11:05:59;;;;;;;14.85;3.72;;;;;;;28.98;38.88;93543.03;5067801;28;20039;-85
2023/07/20 11:08:43;;;;;;;11.57;2.92;;;;;;;29.01;38.20;93530.41;5067066;28;20063;-86
2023/07/20 11:11:29;;;;;;;12.10;3.35;;;;;;;29.23;38.38;93532.50;5067092;28;20027;-87
2023/07/20 11:14:02;;;;;;;11.57;3.85;;;;;;;29.24;36.93;93542.28;5064641;28;20283;-84
2023/07/20 11:16:39;;;;;;;10.82;3.70;;;;;;;29.26;37.21;93540.63;5065501;28;20604;-87
2023/07/20 11:19:05;;;;;;;17.88;4.53;;;;;;;29.46;37.21;93545.09;5068724;28;20028;-84
2023/07/20 11:21:40;;;;;;;8.23;3.70;;;;;;;29.53;37.67;93542.09;5065696;28;20029;-83
2023/07/20 11:24:07;;;;;;;8.50;3.83;;;;;;;29.62;36.68;93533.97;5066176;28;20037;-83
2023/07/20 11:26:52;;;;;;;16.98;4.15;;;;;;;29.82;36.42;93535.69;5066458;28;20048;-79